デンバー の空港の天気 - METARとTAF

デンバー国際空港 ( KDEN / DEN ) - アメリカ コロラド州デンバー
飛行場実況気象(Metar)
観測時間12/15 04:53 MST (12/15 11:53 UTC)
風向・風速西 3m/s
視程10km以上
天気現象
全天の8割程度の雲 雲底高度 6100m
気温-0.6℃
湿度47%
気圧1017.7hPa
METARKDEN 151153Z 26006KT 10SM BKN200 M01/M11 A3004 RMK AO2 SLP177 T10061106 10011 21017 55002
過去の天気等 Google飛行場航空写真 Wunderground天気予報

過去48時間のMETAR

飛行場予報(TAF)
発表時間: 12/15 04:22 MST (12/15 11:22 UTC)
予報対象時間: 15日5時 MST ~ 16日11時 MST
風向・風速西 3m/s
視程10km以上
全天の8割程度の雲 雲底高度 6100m
15日7時 MST から
風向・風速南西 3m/s
視程10km以上
全天の8割程度の雲 雲底高度 5490m
15日10時 MST から
風向・風速不定 3m/s
視程10km以上
全天の8割程度の雲 雲底高度 5490m
15日14時 MST から
風向・風速東北東 3m/s
視程10km以上
全天の4割程度の雲 雲底高度 6710m
15日18時 MST から
風向・風速南南東 4m/s
視程10km以上
全天の4割程度の雲 雲底高度 6710m
15日21時 MST から
風向・風速南南西 5m/s
視程10km以上
少しの雲 雲底高度 6710m
KDEN 151122Z 1512/1618 26006KT P6SM BKN200
FM151400 22006KT P6SM BKN180
FM151700 VRB05KT P6SM BKN180
FM152100 07005KT P6SM SCT220
FM160100 15007KT P6SM SCT220
FM160400 20009KT P6SM FEW220